createdAt,value
2017-08-07T00:00:38.122Z,42.44
2017-08-07T00:01:37.478Z,42.43
2017-08-07T00:02:37.572Z,42.60
2017-08-07T00:03:37.770Z,42.49
2017-08-07T00:04:37.493Z,42.47
2017-08-07T00:05:37.532Z,42.49
2017-08-07T00:06:38.120Z,42.54
2017-08-07T00:07:38.122Z,42.40
2017-08-07T00:08:37.485Z,42.46
2017-08-07T00:09:37.681Z,42.52
2017-08-07T00:10:37.484Z,42.58
2017-08-07T00:11:37.423Z,42.48
2017-08-07T00:12:37.561Z,42.61
2017-08-07T00:13:37.485Z,42.57
2017-08-07T00:14:37.525Z,42.61
2017-08-07T00:15:38.137Z,42.58
2017-08-07T00:16:38.139Z,42.59
2017-08-07T00:17:38.139Z,42.62
2017-08-07T00:18:37.462Z,42.54
2017-08-07T00:19:37.613Z,42.52
2017-08-07T00:20:37.465Z,42.50
2017-08-07T00:21:37.387Z,42.52
2017-08-07T00:22:37.437Z,42.51
2017-08-07T00:23:37.534Z,42.56
2017-08-07T00:24:37.412Z,42.58
2017-08-07T00:25:37.420Z,42.48
2017-08-07T00:26:37.539Z,42.57
2017-08-07T00:27:37.515Z,42.44
2017-08-07T00:28:38.159Z,42.53
2017-08-07T00:29:37.530Z,42.49
2017-08-07T00:30:38.659Z,42.55
2017-08-07T00:31:38.165Z,42.51
2017-08-07T00:32:37.498Z,42.51
2017-08-07T00:33:39.177Z,42.61
2017-08-07T00:34:37.433Z,42.58
2017-08-07T00:35:37.445Z,42.57
2017-08-07T00:36:39.209Z,42.53
2017-08-07T00:37:39.171Z,42.60
2017-08-07T00:38:37.498Z,42.57
2017-08-07T00:39:38.363Z,42.56
2017-08-07T00:40:39.208Z,42.53
2017-08-07T00:41:37.449Z,42.53
2017-08-07T00:42:37.531Z,42.45
2017-08-07T00:43:37.489Z,42.49
2017-08-07T00:44:39.184Z,42.40
2017-08-07T00:45:37.444Z,42.42
2017-08-07T00:46:37.517Z,42.49
2017-08-07T00:47:37.484Z,42.54
2017-08-07T00:48:37.421Z,42.44
2017-08-07T00:49:37.858Z,42.55
2017-08-07T00:50:37.479Z,42.56
2017-08-07T00:51:37.467Z,42.44
2017-08-07T00:52:37.552Z,42.44
2017-08-07T00:53:38.199Z,42.54
2017-08-07T00:54:37.853Z,42.47
2017-08-07T00:55:38.204Z,42.29
2017-08-07T00:56:38.215Z,42.42
2017-08-07T00:57:38.204Z,42.49
2017-08-07T00:58:38.705Z,42.48
2017-08-07T00:59:37.406Z,42.39
2017-08-07T01:00:37.470Z,42.51
2017-08-07T01:01:38.302Z,42.40
2017-08-07T01:02:37.467Z,42.54
2017-08-07T01:03:37.439Z,42.55
2017-08-07T01:04:38.216Z,42.56
2017-08-07T01:05:37.433Z,42.50
2017-08-07T01:06:37.389Z,42.50
2017-08-07T01:07:37.415Z,42.56
2017-08-07T01:08:37.477Z,42.51
2017-08-07T01:09:37.469Z,42.61
2017-08-07T01:10:37.427Z,42.58
2017-08-07T01:11:37.520Z,42.47
2017-08-07T01:12:37.409Z,42.51
2017-08-07T01:13:37.393Z,42.47
2017-08-07T01:14:37.898Z,42.48
2017-08-07T01:15:37.590Z,42.56
2017-08-07T01:16:37.477Z,42.49
2017-08-07T01:17:37.461Z,42.52
2017-08-07T01:18:37.424Z,42.46
2017-08-07T01:19:38.240Z,42.46
2017-08-07T01:20:37.641Z,42.53
2017-08-07T01:21:37.414Z,42.54
2017-08-07T01:22:37.427Z,42.49
2017-08-07T01:23:37.390Z,42.51
2017-08-07T01:24:37.458Z,42.42
2017-08-07T01:25:37.476Z,42.43
2017-08-07T01:26:37.376Z,42.46
2017-08-07T01:27:37.467Z,42.55
2017-08-07T01:28:37.460Z,42.46
2017-08-07T01:29:37.957Z,42.44
2017-08-07T01:30:37.438Z,42.61
2017-08-07T01:31:38.259Z,42.60
2017-08-07T01:32:37.469Z,42.58
2017-08-07T01:33:37.339Z,42.53
2017-08-07T01:34:37.419Z,42.54
2017-08-07T01:35:37.410Z,42.59
2017-08-07T01:36:37.501Z,42.44
2017-08-07T01:37:39.270Z,42.45
2017-08-07T01:38:38.283Z,42.62
2017-08-07T01:39:38.275Z,42.64
2017-08-07T01:40:38.274Z,42.67
2017-08-07T01:41:38.275Z,42.45
2017-08-07T01:42:37.418Z,42.44
2017-08-07T01:43:38.279Z,42.48
2017-08-07T01:44:37.465Z,42.41
2017-08-07T01:45:37.473Z,42.46
2017-08-07T01:46:37.372Z,42.60
2017-08-07T01:47:37.432Z,42.45
2017-08-07T01:48:38.302Z,42.45
2017-08-07T01:49:37.359Z,42.44
2017-08-07T01:50:38.294Z,42.39
2017-08-07T01:51:38.842Z,42.47
2017-08-07T01:52:37.388Z,42.46
2017-08-07T01:53:37.373Z,42.59
2017-08-07T01:54:37.439Z,42.47
2017-08-07T01:55:38.297Z,42.49
2017-08-07T01:56:38.332Z,42.55
2017-08-07T01:57:37.413Z,42.50
2017-08-07T01:58:38.802Z,42.35
2017-08-07T01:59:38.308Z,42.64
2017-08-07T02:00:37.440Z,42.53
2017-08-07T02:01:39.834Z,42.45
2017-08-07T02:02:39.309Z,42.53
2017-08-07T02:03:37.470Z,42.55
2017-08-07T02:04:37.813Z,42.58
2017-08-07T02:05:38.334Z,42.59
2017-08-07T02:06:38.315Z,42.55
2017-08-07T02:07:37.833Z,42.63
2017-08-07T02:08:38.323Z,42.60
2017-08-07T02:09:37.366Z,42.55
2017-08-07T02:10:37.500Z,42.51
2017-08-07T02:11:37.843Z,42.57
2017-08-07T02:12:38.205Z,42.56
2017-08-07T02:13:37.334Z,42.56
2017-08-07T02:14:37.831Z,42.49
2017-08-07T02:15:37.408Z,42.57
2017-08-07T02:16:37.413Z,42.60
2017-08-07T02:17:37.385Z,42.50
2017-08-07T02:18:37.834Z,42.48
2017-08-07T02:19:37.434Z,42.50
2017-08-07T02:20:37.453Z,42.54
2017-08-07T02:21:37.519Z,42.55
2017-08-07T02:22:37.845Z,42.48
2017-08-07T02:23:37.473Z,42.47
2017-08-07T02:24:37.499Z,42.57
2017-08-07T02:25:37.361Z,42.47
2017-08-07T02:26:37.429Z,42.57
2017-08-07T02:27:37.430Z,42.52
2017-08-07T02:28:37.883Z,42.35
2017-08-07T02:29:37.385Z,42.52
2017-08-07T02:30:37.383Z,42.52
2017-08-07T02:31:37.506Z,42.52
2017-08-07T02:32:37.482Z,42.46
2017-08-07T02:33:37.866Z,42.36
2017-08-07T02:34:37.391Z,42.41
2017-08-07T02:35:38.362Z,42.32
2017-08-07T02:36:37.868Z,42.33
2017-08-07T02:37:37.405Z,42.32
2017-08-07T02:38:37.433Z,42.46
2017-08-07T02:39:37.889Z,42.43
2017-08-07T02:40:37.452Z,42.48
2017-08-07T02:41:37.375Z,42.40
2017-08-07T02:42:37.372Z,42.42
2017-08-07T02:43:37.398Z,42.33
2017-08-07T02:44:37.880Z,42.45
2017-08-07T02:45:37.446Z,42.44
2017-08-07T02:46:37.411Z,42.49
2017-08-07T02:47:37.881Z,42.43
2017-08-07T02:48:37.378Z,42.48
2017-08-07T02:49:38.384Z,42.54
2017-08-07T02:50:37.399Z,42.46
2017-08-07T02:51:37.478Z,42.47
2017-08-07T02:52:37.403Z,42.53
2017-08-07T02:53:37.893Z,42.49
2017-08-07T02:54:37.485Z,42.46
2017-08-07T02:55:37.375Z,42.47
2017-08-07T02:56:37.388Z,42.50
2017-08-07T02:57:37.334Z,42.42
2017-08-07T02:58:37.367Z,42.47
2017-08-07T02:59:37.351Z,42.40
2017-08-07T03:00:37.907Z,42.45
2017-08-07T03:01:37.411Z,42.48
2017-08-07T03:02:37.384Z,42.33
2017-08-07T03:03:37.907Z,42.43
2017-08-07T03:04:37.915Z,42.46
2017-08-07T03:05:37.913Z,42.29
2017-08-07T03:06:37.928Z,42.51
2017-08-07T03:07:37.389Z,42.23
2017-08-07T03:08:38.916Z,42.31
2017-08-07T03:09:37.391Z,42.42
2017-08-07T03:10:37.515Z,42.44
2017-08-07T03:11:37.386Z,42.39
2017-08-07T03:12:37.489Z,42.43
2017-08-07T03:13:37.504Z,42.42
2017-08-07T03:14:37.412Z,42.41
2017-08-07T03:15:37.378Z,42.28
2017-08-07T03:16:37.362Z,42.38
2017-08-07T03:17:37.353Z,42.35
2017-08-07T03:18:37.328Z,42.37
2017-08-07T03:19:37.460Z,42.28
2017-08-07T03:20:37.938Z,42.49
2017-08-07T03:21:37.968Z,42.28
2017-08-07T03:22:37.399Z,42.42
2017-08-07T03:23:37.469Z,42.30
2017-08-07T03:24:37.288Z,42.35
2017-08-07T03:25:37.323Z,42.42
2017-08-07T03:26:37.410Z,42.38
2017-08-07T03:27:37.392Z,42.43
2017-08-07T03:28:37.344Z,42.31
2017-08-07T03:29:37.396Z,42.28
2017-08-07T03:30:37.336Z,42.31
2017-08-07T03:31:37.958Z,42.36
2017-08-07T03:32:38.454Z,42.37
2017-08-07T03:33:37.956Z,42.21
2017-08-07T03:34:37.969Z,42.39
2017-08-07T03:35:37.387Z,42.52
2017-08-07T03:36:37.967Z,42.36
2017-08-07T03:37:38.523Z,42.35
2017-08-07T03:38:38.480Z,42.30
2017-08-07T03:39:37.319Z,42.30
2017-08-07T03:40:37.968Z,42.33
2017-08-07T03:41:37.990Z,42.36
2017-08-07T03:42:37.447Z,42.39
2017-08-07T03:43:37.978Z,42.37
2017-08-07T03:44:39.005Z,42.46
2017-08-07T03:45:37.976Z,42.47
2017-08-07T03:46:37.986Z,42.41
2017-08-07T03:47:37.402Z,42.45
2017-08-07T03:48:37.328Z,42.36
2017-08-07T03:49:37.410Z,42.28
2017-08-07T03:50:37.332Z,42.40
2017-08-07T03:51:37.446Z,42.28
2017-08-07T03:52:37.354Z,42.34
2017-08-07T03:53:37.396Z,42.20
2017-08-07T03:54:37.359Z,42.27
2017-08-07T03:55:37.991Z,42.34
2017-08-07T03:56:37.443Z,42.25
2017-08-07T03:57:38.287Z,42.38
2017-08-07T03:58:37.497Z,42.28
2017-08-07T03:59:37.381Z,42.36
2017-08-07T04:00:37.348Z,42.20
2017-08-07T04:01:37.306Z,42.30
2017-08-07T04:02:37.394Z,42.25
2017-08-07T04:03:38.005Z,42.22
2017-08-07T04:04:37.353Z,42.08
2017-08-07T04:05:37.372Z,42.33
2017-08-07T04:06:37.403Z,42.23
2017-08-07T04:07:38.015Z,42.27
2017-08-07T04:08:37.701Z,42.21
2017-08-07T04:09:38.015Z,42.27
2017-08-07T04:10:37.357Z,42.20
2017-08-07T04:11:38.023Z,42.22
2017-08-07T04:12:37.356Z,42.12
2017-08-07T04:13:37.423Z,42.24
2017-08-07T04:14:37.353Z,42.24
2017-08-07T04:15:38.028Z,42.19
2017-08-07T04:16:37.530Z,42.17
2017-08-07T04:17:37.396Z,42.25
2017-08-07T04:18:37.358Z,42.27
2017-08-07T04:19:38.530Z,42.29
2017-08-07T04:20:38.032Z,42.21
2017-08-07T04:21:37.365Z,42.26
2017-08-07T04:22:37.409Z,42.21
2017-08-07T04:23:38.036Z,42.21
2017-08-07T04:24:37.425Z,42.12
2017-08-07T04:25:37.323Z,42.26
2017-08-07T04:26:37.384Z,42.25
2017-08-07T04:27:37.338Z,42.24
2017-08-07T04:28:38.044Z,42.26
2017-08-07T04:29:37.333Z,42.24
2017-08-07T04:30:37.334Z,42.26
2017-08-07T04:31:37.400Z,42.21
2017-08-07T04:32:37.424Z,42.26
2017-08-07T04:33:37.333Z,42.36
2017-08-07T04:34:37.424Z,42.23
2017-08-07T04:35:37.379Z,42.26
2017-08-07T04:36:37.359Z,42.31
2017-08-07T04:37:37.447Z,42.23
2017-08-07T04:38:37.273Z,42.21
2017-08-07T04:39:37.344Z,42.26
2017-08-07T04:40:38.090Z,42.25
2017-08-07T04:41:37.337Z,42.34
2017-08-07T04:42:38.067Z,42.27
2017-08-07T04:43:39.068Z,42.23
2017-08-07T04:44:37.481Z,42.33
2017-08-07T04:45:38.095Z,42.29
2017-08-07T04:46:37.312Z,42.33
2017-08-07T04:47:38.076Z,42.47
2017-08-07T04:48:37.303Z,42.45
2017-08-07T04:49:38.078Z,42.37
2017-08-07T04:50:38.080Z,42.40
2017-08-07T04:51:38.232Z,42.33
2017-08-07T04:52:38.083Z,42.35
2017-08-07T04:53:38.150Z,42.56
2017-08-07T04:54:38.086Z,42.48
2017-08-07T04:55:37.244Z,42.47
2017-08-07T04:56:37.292Z,42.47
2017-08-07T04:57:37.334Z,42.48
2017-08-07T04:58:37.325Z,42.47
2017-08-07T04:59:38.115Z,42.41
2017-08-07T05:00:37.282Z,42.56
2017-08-07T05:01:37.244Z,42.53
2017-08-07T05:02:37.333Z,42.50
2017-08-07T05:03:37.270Z,42.57
2017-08-07T05:04:38.102Z,42.47
2017-08-07T05:05:37.867Z,42.57
2017-08-07T05:06:37.521Z,42.61
2017-08-07T05:07:37.269Z,42.56
2017-08-07T05:08:37.282Z,42.50
2017-08-07T05:09:38.121Z,42.66
2017-08-07T05:10:38.613Z,42.68
2017-08-07T05:11:37.362Z,42.56
2017-08-07T05:12:37.348Z,42.55
2017-08-07T05:13:37.318Z,42.51
2017-08-07T05:14:37.337Z,42.61
2017-08-07T05:15:37.368Z,42.65
2017-08-07T05:16:37.355Z,42.59
2017-08-07T05:17:38.133Z,42.67
2017-08-07T05:18:38.125Z,42.70
2017-08-07T05:19:38.152Z,42.59
2017-08-07T05:20:37.886Z,42.76
2017-08-07T05:21:38.129Z,42.73
2017-08-07T05:22:38.140Z,42.72
2017-08-07T05:23:38.133Z,42.68
2017-08-07T05:24:37.321Z,42.71
2017-08-07T05:25:38.136Z,42.69
2017-08-07T05:26:37.301Z,42.70
2017-08-07T05:27:37.313Z,42.81
2017-08-07T05:28:37.387Z,42.85
2017-08-07T05:29:37.367Z,42.82
2017-08-07T05:30:38.648Z,42.85
2017-08-07T05:31:37.278Z,42.90
2017-08-07T05:32:37.304Z,42.89
2017-08-07T05:33:37.336Z,42.95
2017-08-07T05:34:37.345Z,42.91
2017-08-07T05:35:37.349Z,42.91
2017-08-07T05:36:37.296Z,42.96
2017-08-07T05:37:37.414Z,42.94
2017-08-07T05:38:37.287Z,42.96
2017-08-07T05:39:37.300Z,43.01
2017-08-07T05:40:37.309Z,43.01
2017-08-07T05:41:37.343Z,43.04
2017-08-07T05:42:38.164Z,43.05
2017-08-07T05:43:37.345Z,43.06
2017-08-07T05:44:37.413Z,43.13
2017-08-07T05:45:38.172Z,43.15
2017-08-07T05:46:37.340Z,43.15
2017-08-07T05:47:37.363Z,43.20
2017-08-07T05:48:37.317Z,43.24
2017-08-07T05:49:37.281Z,43.26
2017-08-07T05:50:38.185Z,43.26
2017-08-07T05:51:37.343Z,43.30
2017-08-07T05:52:37.305Z,43.32
2017-08-07T05:53:38.189Z,43.38
2017-08-07T05:54:37.343Z,43.39
2017-08-07T05:55:39.208Z,43.40
2017-08-07T05:56:37.408Z,43.48
2017-08-07T05:57:37.390Z,43.48
2017-08-07T05:58:37.499Z,43.47
2017-08-07T05:59:37.298Z,43.58
2017-08-07T06:00:37.314Z,43.58
2017-08-07T06:01:37.336Z,43.62
2017-08-07T06:02:37.722Z,43.67
2017-08-07T06:03:37.406Z,43.69
2017-08-07T06:04:37.364Z,43.71
2017-08-07T06:05:37.313Z,43.77
2017-08-07T06:06:38.203Z,43.80
2017-08-07T06:07:37.346Z,43.83
2017-08-07T06:08:37.334Z,43.88
2017-08-07T06:09:37.293Z,43.90
2017-08-07T06:10:37.289Z,43.97
2017-08-07T06:11:37.291Z,44.00
2017-08-07T06:12:37.321Z,44.03
2017-08-07T06:13:37.342Z,44.06
2017-08-07T06:14:37.328Z,44.10
2017-08-07T06:15:37.800Z,44.15
2017-08-07T06:16:37.340Z,44.10
2017-08-07T06:17:37.334Z,44.19
2017-08-07T06:18:37.308Z,44.22
2017-08-07T06:19:37.733Z,44.26
2017-08-07T06:20:37.329Z,44.27
2017-08-07T06:21:37.307Z,44.22
2017-08-07T06:22:37.492Z,44.54
2017-08-07T06:23:37.269Z,44.46
2017-08-07T06:24:37.741Z,44.36
2017-08-07T06:25:37.360Z,44.30
2017-08-07T06:26:37.739Z,44.39
2017-08-07T06:27:37.736Z,44.39
2017-08-07T06:28:37.233Z,44.40
2017-08-07T06:29:37.260Z,44.49
2017-08-07T06:30:37.742Z,44.48
2017-08-07T06:31:37.745Z,44.52
2017-08-07T06:32:37.745Z,44.54
2017-08-07T06:33:37.357Z,44.56
2017-08-07T06:34:37.748Z,44.57
2017-08-07T06:35:38.275Z,44.65
2017-08-07T06:36:37.273Z,44.57
2017-08-07T06:37:37.285Z,44.59
2017-08-07T06:38:37.426Z,44.56
2017-08-07T06:39:37.757Z,44.58
2017-08-07T06:40:37.768Z,44.63
2017-08-07T06:41:37.307Z,44.56
2017-08-07T06:42:37.761Z,44.52
2017-08-07T06:43:38.266Z,44.66
2017-08-07T06:44:37.327Z,44.60
2017-08-07T06:45:38.291Z,44.72
2017-08-07T06:46:37.807Z,44.78
2017-08-07T06:47:37.318Z,44.67
2017-08-07T06:48:37.195Z,44.72
2017-08-07T06:49:37.776Z,44.82
2017-08-07T06:50:37.305Z,44.68
2017-08-07T06:51:37.330Z,44.75
2017-08-07T06:52:37.245Z,44.65
2017-08-07T06:53:37.297Z,44.71
2017-08-07T06:54:37.780Z,44.66
2017-08-07T06:55:37.785Z,44.83
2017-08-07T06:56:37.415Z,44.83
2017-08-07T06:57:37.292Z,44.94
2017-08-07T06:58:37.323Z,44.77
2017-08-07T06:59:37.255Z,44.86
2017-08-07T07:00:37.792Z,44.80
2017-08-07T07:01:37.263Z,44.75
2017-08-07T07:02:37.378Z,44.78
2017-08-07T07:03:38.295Z,44.87
2017-08-07T07:04:37.206Z,44.89
2017-08-07T07:05:37.206Z,44.85
2017-08-07T07:06:38.309Z,44.83
2017-08-07T07:07:37.339Z,44.82
2017-08-07T07:08:37.272Z,44.85
2017-08-07T07:09:37.351Z,44.84
2017-08-07T07:10:37.295Z,44.87
2017-08-07T07:11:37.821Z,44.86
2017-08-07T07:12:37.257Z,44.89
2017-08-07T07:13:37.279Z,44.88
2017-08-07T07:14:37.291Z,44.84
2017-08-07T07:15:37.932Z,44.86
2017-08-07T07:16:37.820Z,44.82
2017-08-07T07:17:37.228Z,44.94
2017-08-07T07:18:37.539Z,44.93
2017-08-07T07:19:37.227Z,44.83
2017-08-07T07:20:37.227Z,44.84
2017-08-07T07:21:37.355Z,44.77
2017-08-07T07:22:37.380Z,44.78
2017-08-07T07:23:37.834Z,44.75
2017-08-07T07:24:37.368Z,44.75
2017-08-07T07:25:37.284Z,44.68
2017-08-07T07:26:37.226Z,44.69
2017-08-07T07:27:37.837Z,44.62
2017-08-07T07:28:38.338Z,44.60
2017-08-07T07:29:37.863Z,44.61
2017-08-07T07:30:37.310Z,44.59
2017-08-07T07:31:38.843Z,44.49
2017-08-07T07:32:37.260Z,46.54
2017-08-07T07:33:38.343Z,44.75
2017-08-07T07:34:37.322Z,45.08
2017-08-07T07:35:37.216Z,45.51
2017-08-07T07:36:37.283Z,45.34
2017-08-07T07:37:37.214Z,45.32
2017-08-07T07:38:37.360Z,45.00
2017-08-07T07:39:37.853Z,44.89
2017-08-07T07:40:37.854Z,44.97
2017-08-07T07:41:37.303Z,44.86
2017-08-07T07:42:37.318Z,44.71
2017-08-07T07:43:37.308Z,44.61
2017-08-07T07:44:37.202Z,44.62
2017-08-07T07:45:37.299Z,44.53
2017-08-07T07:46:37.873Z,44.39
2017-08-07T07:47:37.872Z,44.33
2017-08-07T07:48:37.885Z,44.26
2017-08-07T07:49:37.265Z,44.25
2017-08-07T07:50:37.252Z,44.20
2017-08-07T07:51:37.872Z,44.17
2017-08-07T07:52:37.281Z,44.17
2017-08-07T07:53:37.305Z,44.12
2017-08-07T07:54:37.548Z,44.02
2017-08-07T07:55:37.879Z,44.00
2017-08-07T07:56:37.896Z,43.94
2017-08-07T07:57:37.883Z,43.97
2017-08-07T07:58:37.889Z,43.89
2017-08-07T07:59:37.284Z,43.92
2017-08-07T08:00:39.388Z,43.93
2017-08-07T08:01:37.218Z,43.88
2017-08-07T08:02:37.243Z,43.87
2017-08-07T08:03:37.232Z,43.83
2017-08-07T08:04:37.320Z,43.72
2017-08-07T08:05:38.015Z,43.76
2017-08-07T08:06:37.897Z,43.69
2017-08-07T08:07:37.267Z,43.69
2017-08-07T08:08:37.902Z,43.67
2017-08-07T08:09:37.294Z,43.52
2017-08-07T08:10:37.216Z,43.50
2017-08-07T08:11:37.255Z,43.57
2017-08-07T08:12:37.911Z,43.55
2017-08-07T08:13:37.207Z,43.51
2017-08-07T08:14:37.335Z,43.49
2017-08-07T08:15:37.223Z,43.49
2017-08-07T08:16:37.250Z,43.44
2017-08-07T08:17:37.940Z,43.43
2017-08-07T08:18:37.226Z,43.35
2017-08-07T08:19:37.233Z,43.37
2017-08-07T08:20:37.272Z,43.36
2017-08-07T08:21:37.922Z,43.34
2017-08-07T08:22:37.979Z,43.33
2017-08-07T08:23:37.175Z,43.33
2017-08-07T08:24:37.287Z,43.33
2017-08-07T08:25:37.212Z,43.34
2017-08-07T08:26:37.218Z,43.38
2017-08-07T08:27:37.943Z,43.36
2017-08-07T08:28:37.226Z,43.36
2017-08-07T08:29:37.246Z,43.35
2017-08-07T08:30:37.621Z,43.32
2017-08-07T08:31:37.942Z,43.31
2017-08-07T08:32:37.176Z,43.39
2017-08-07T08:33:37.209Z,43.38
2017-08-07T08:34:37.272Z,43.35
2017-08-07T08:35:37.359Z,43.38
2017-08-07T08:36:37.987Z,43.33
2017-08-07T08:37:37.216Z,43.35
2017-08-07T08:38:37.219Z,43.32
2017-08-07T08:39:37.964Z,43.34
2017-08-07T08:40:37.954Z,43.36
2017-08-07T08:41:38.456Z,43.31
2017-08-07T08:42:37.257Z,43.31
2017-08-07T08:43:37.956Z,43.32
2017-08-07T08:44:37.280Z,43.36
2017-08-07T08:45:37.315Z,43.37
2017-08-07T08:46:37.409Z,43.35
2017-08-07T08:47:37.265Z,43.38
2017-08-07T08:48:37.295Z,43.39
2017-08-07T08:49:37.974Z,43.38
2017-08-07T08:50:37.289Z,43.38
2017-08-07T08:51:37.368Z,43.39
2017-08-07T08:52:37.318Z,43.43
2017-08-07T08:53:37.211Z,43.42
2017-08-07T08:54:38.012Z,43.37
2017-08-07T08:55:37.337Z,43.42
2017-08-07T08:56:37.356Z,43.36
2017-08-07T08:57:37.453Z,43.36
2017-08-07T08:58:37.254Z,43.36
2017-08-07T08:59:37.255Z,43.50
2017-08-07T09:43:59.224Z,47.93
2017-08-07T09:44:59.234Z,47.16
2017-08-07T09:47:35.990Z,46.92
2017-08-07T09:48:36.891Z,48.08
2017-08-07T09:49:36.010Z,46.74
2017-08-07T09:50:36.017Z,48.30
2017-08-07T09:51:36.037Z,46.86
2017-08-07T09:52:36.044Z,46.76
2017-08-07T09:53:36.018Z,46.50
2017-08-07T09:54:36.009Z,47.40
2017-08-07T09:55:36.079Z,46.15
2017-08-07T09:56:36.155Z,46.67
2017-08-07T09:57:36.927Z,46.14
2017-08-07T09:58:36.038Z,45.87
2017-08-07T09:59:36.036Z,45.98
2017-08-07T10:00:36.029Z,45.84
2017-08-07T10:01:36.031Z,45.78
2017-08-07T10:02:36.025Z,45.28
2017-08-07T10:03:36.920Z,45.42
2017-08-07T10:04:36.095Z,45.37
2017-08-07T10:05:36.923Z,45.19
2017-08-07T10:06:36.922Z,45.29
2017-08-07T10:07:36.024Z,45.25
2017-08-07T10:08:36.928Z,44.78
2017-08-07T10:09:36.018Z,45.17
2017-08-07T10:10:36.052Z,45.07
2017-08-07T10:11:36.124Z,44.92
2017-08-07T10:12:36.110Z,44.97
2017-08-07T10:13:36.011Z,44.85
2017-08-07T10:14:36.094Z,44.79
2017-08-07T10:15:36.939Z,44.59
2017-08-07T10:16:36.106Z,44.67
2017-08-07T10:17:36.133Z,44.68
2017-08-07T10:18:36.102Z,44.47
2017-08-07T10:19:36.111Z,44.42
2017-08-07T10:20:36.959Z,44.37
2017-08-07T10:21:36.146Z,44.43
2017-08-07T10:22:36.120Z,44.37
2017-08-07T10:23:36.220Z,44.27
2017-08-07T10:24:36.050Z,44.22
2017-08-07T10:25:36.079Z,44.21
2017-08-07T10:26:36.955Z,44.06
2017-08-07T10:27:36.075Z,44.03
2017-08-07T10:28:36.958Z,44.11
2017-08-07T10:29:36.038Z,43.86
2017-08-07T10:30:36.126Z,43.82
2017-08-07T10:31:36.468Z,43.83
2017-08-07T10:32:36.082Z,43.82
2017-08-07T10:33:36.116Z,43.62
2017-08-07T10:34:35.991Z,43.72
2017-08-07T10:35:36.051Z,43.61
2017-08-07T10:36:36.091Z,43.59
2017-08-07T10:37:36.040Z,43.60
2017-08-07T10:38:37.974Z,43.51
2017-08-07T10:39:37.476Z,43.46
2017-08-07T10:40:36.154Z,43.48
2017-08-07T10:41:36.109Z,43.37
2017-08-07T10:42:36.152Z,43.38
2017-08-07T10:43:36.034Z,43.37
2017-08-07T10:44:36.986Z,43.27
2017-08-07T10:45:36.497Z,43.31
2017-08-07T10:46:36.050Z,43.24
2017-08-07T10:47:36.070Z,43.22
2017-08-07T10:48:36.075Z,43.19
2017-08-07T10:49:36.493Z,43.12
2017-08-07T10:50:36.994Z,43.10
2017-08-07T10:51:36.067Z,42.99
2017-08-07T10:52:36.106Z,42.98
2017-08-07T10:53:36.276Z,42.87
2017-08-07T10:54:36.039Z,42.80
2017-08-07T10:55:36.080Z,42.78
2017-08-07T10:56:36.102Z,42.75
2017-08-07T10:57:36.079Z,42.66
2017-08-07T10:58:36.044Z,42.60
2017-08-07T10:59:35.981Z,42.54
2017-08-07T11:00:36.188Z,42.47
2017-08-07T11:01:37.012Z,42.44
2017-08-07T11:02:35.982Z,42.45
2017-08-07T11:03:36.249Z,42.49
2017-08-07T11:04:36.517Z,42.39
2017-08-07T11:05:36.062Z,42.42
2017-08-07T11:06:36.020Z,42.28
2017-08-07T11:07:36.018Z,40.97
2017-08-07T11:08:36.046Z,42.08
2017-08-07T11:09:36.247Z,41.00
2017-08-07T11:10:36.109Z,39.61
2017-08-07T11:11:37.068Z,40.87
2017-08-07T11:12:36.103Z,40.15
2017-08-07T11:13:36.060Z,40.76
2017-08-07T11:14:36.533Z,40.26
2017-08-07T11:15:36.026Z,40.21
2017-08-07T11:16:36.111Z,39.90
2017-08-07T11:17:36.562Z,40.31
2017-08-07T11:18:36.058Z,40.39
2017-08-07T11:19:36.352Z,43.03
2017-08-07T11:20:36.021Z,41.09
2017-08-07T11:21:36.025Z,40.98
2017-08-07T11:22:36.064Z,40.48
2017-08-07T11:23:37.053Z,42.01
2017-08-07T11:24:36.057Z,43.13
2017-08-07T11:25:36.175Z,40.95
2017-08-07T11:26:36.211Z,42.19
2017-08-07T11:27:37.055Z,42.38
2017-08-07T11:28:36.111Z,40.62
2017-08-07T11:29:36.239Z,40.19
2017-08-07T11:30:36.560Z,41.13
2017-08-07T11:31:36.049Z,40.46
2017-08-07T11:32:36.815Z,41.14
2017-08-07T11:33:36.119Z,42.30
2017-08-07T11:34:36.207Z,42.63
2017-08-07T11:35:36.161Z,41.53
2017-08-07T11:36:36.035Z,42.64
2017-08-07T11:37:36.119Z,42.50
2017-08-07T11:38:36.175Z,41.38
2017-08-07T11:39:36.164Z,40.96
2017-08-07T11:40:36.009Z,40.46
2017-08-07T11:41:36.041Z,40.36
2017-08-07T11:42:36.155Z,40.44
2017-08-07T11:43:36.123Z,41.34
2017-08-07T11:44:36.064Z,40.33
2017-08-07T11:45:36.106Z,40.29
2017-08-07T11:46:36.594Z,40.34
2017-08-07T11:47:36.618Z,41.25
2017-08-07T11:48:36.623Z,41.03
2017-08-07T11:49:36.111Z,40.98
2017-08-07T11:50:35.972Z,41.22
2017-08-07T11:51:36.788Z,40.91
2017-08-07T11:52:36.011Z,40.73
2017-08-07T11:53:36.599Z,40.89
2017-08-07T11:54:36.724Z,40.63
2017-08-07T11:55:36.123Z,40.66
2017-08-07T11:56:36.069Z,41.01
2017-08-07T11:57:36.113Z,41.24
2017-08-07T11:58:36.780Z,40.96
2017-08-07T11:59:36.106Z,40.74
2017-08-07T12:00:36.159Z,41.03
2017-08-07T12:01:36.612Z,41.08
2017-08-07T12:02:36.616Z,41.16
2017-08-07T12:03:36.678Z,41.14
2017-08-07T12:04:36.123Z,40.97
2017-08-07T12:05:36.797Z,40.77
2017-08-07T12:06:35.989Z,40.91
2017-08-07T12:07:36.162Z,40.96
2017-08-07T12:08:36.074Z,40.58
2017-08-07T12:09:36.115Z,40.80
2017-08-07T12:10:36.626Z,41.28
2017-08-07T12:11:36.628Z,40.38
2017-08-07T12:12:36.259Z,40.58
2017-08-07T12:13:36.149Z,40.83
2017-08-07T12:14:36.074Z,40.82
2017-08-07T12:15:36.010Z,40.76
2017-08-07T12:16:36.069Z,40.98
2017-08-07T12:17:36.176Z,40.11
2017-08-07T12:18:36.640Z,40.54
2017-08-07T12:19:36.144Z,40.37
2017-08-07T12:20:36.092Z,40.32
2017-08-07T12:21:36.056Z,40.35
2017-08-07T12:22:36.129Z,39.85
2017-08-07T12:23:36.675Z,40.35
2017-08-07T12:24:36.663Z,40.13
2017-08-07T12:25:36.781Z,40.21
2017-08-07T12:26:36.248Z,40.72
2017-08-07T12:27:36.686Z,40.94
2017-08-07T12:28:36.076Z,41.57
2017-08-07T12:29:36.999Z,40.81
2017-08-07T12:30:36.784Z,40.87
2017-08-07T12:31:36.081Z,40.77
2017-08-07T12:32:35.988Z,40.97
2017-08-07T12:33:36.666Z,40.75
2017-08-07T12:34:36.144Z,40.08
2017-08-07T12:35:36.677Z,40.39
2017-08-07T12:36:36.281Z,40.30
2017-08-07T12:37:35.998Z,40.17
2017-08-07T12:38:36.688Z,39.64
2017-08-07T12:39:37.174Z,40.11
2017-08-07T12:40:36.190Z,40.31
2017-08-07T12:41:36.113Z,40.16
2017-08-07T12:42:36.136Z,40.06
2017-08-07T12:43:36.072Z,40.14
2017-08-07T12:44:36.053Z,39.96
2017-08-07T12:45:36.041Z,40.19
2017-08-07T12:46:36.120Z,40.08
2017-08-07T12:47:36.175Z,40.02
2017-08-07T12:48:36.690Z,40.17
2017-08-07T12:49:36.004Z,39.82
2017-08-07T12:50:36.717Z,40.06
2017-08-07T12:51:36.360Z,40.19
2017-08-07T12:52:36.712Z,40.05
2017-08-07T12:53:36.115Z,40.01
2017-08-07T12:54:36.708Z,40.06
2017-08-07T12:55:36.738Z,40.12
2017-08-07T12:56:36.168Z,40.02
2017-08-07T12:57:36.080Z,39.92
2017-08-07T12:58:36.060Z,39.96
2017-08-07T12:59:36.958Z,39.94
2017-08-07T13:00:36.711Z,40.03
2017-08-07T13:01:37.114Z,40.02
2017-08-07T13:02:35.988Z,40.01
2017-08-07T13:03:36.017Z,39.67
2017-08-07T13:04:37.715Z,39.96
2017-08-07T13:05:36.918Z,39.79
2017-08-07T13:06:36.062Z,39.73
2017-08-07T13:07:35.991Z,39.43
2017-08-07T13:08:36.079Z,39.65
2017-08-07T13:09:37.820Z,39.53
2017-08-07T13:10:37.226Z,39.15
2017-08-07T13:11:36.727Z,39.72
2017-08-07T13:12:36.825Z,39.82
2017-08-07T13:13:36.181Z,39.94
2017-08-07T13:14:36.142Z,39.82
2017-08-07T13:15:36.102Z,39.69
2017-08-07T13:16:36.073Z,39.82
2017-08-07T13:17:36.005Z,39.70
2017-08-07T13:18:36.014Z,39.81
2017-08-07T13:19:36.043Z,39.87
2017-08-07T13:20:36.745Z,39.70
2017-08-07T13:21:36.919Z,39.73
2017-08-07T13:22:37.751Z,39.58
2017-08-07T13:23:36.073Z,39.49
2017-08-07T13:24:36.106Z,39.32
2017-08-07T13:25:36.056Z,39.25
2017-08-07T13:26:36.060Z,39.06
2017-08-07T13:27:36.240Z,39.43
2017-08-07T13:28:36.760Z,39.06
2017-08-07T13:29:36.757Z,38.97
2017-08-07T13:30:36.765Z,38.97
2017-08-07T13:31:36.153Z,39.51
2017-08-07T13:32:38.268Z,38.90
2017-08-07T13:33:36.091Z,39.26
2017-08-07T13:34:36.766Z,39.06
2017-08-07T13:35:36.846Z,39.26
2017-08-07T13:36:36.028Z,38.85
2017-08-07T13:37:36.965Z,39.27